TUA901 UTAA-LTFM
Flight info
| Callsign | TUA901 |
|---|---|
| Flight time | N/A |
| Altitude | 36000 |
| Route | MAM29D MAMED B449 DUKAN L850 BAKUV N199 EDATA M11 TABAS DCT REBLO UT165 AKUTU UB111 NETPU UT165 TBN UW71 ILHAN UT97 KANQO |
| Aircraft | B738/M-SDE2E3FGHIRWXY/LB1 |
Departure
| Time | 2026-04-28 16:40 |
|---|---|
| Airport | Ashgabat International Airport (UTAA) |
Arrival
| Time | N/A |
|---|---|
| Airport | İstanbul Airport (LTFM) |
| Time | Latitude | Longitude | Altitude | Speed | Heading |
|---|---|---|---|---|---|
| 2026-04-28 16:27 | 37.98030 | 58.36880 | 694 ft | 0 kts | 210° |
| 2026-04-28 16:32 | 37.98065 | 58.36902 | 692 ft | 4 kts | 199° |
| 2026-04-28 16:32 | 37.98090 | 58.36910 | 701 ft | 4 kts | 179° |
| 2026-04-28 16:33 | 37.98112 | 58.36902 | 701 ft | 3 kts | 124° |
| 2026-04-28 16:33 | 37.98114 | 58.36899 | 701 ft | 0 kts | 120° |
| 2026-04-28 16:35 | 37.98111 | 58.36907 | 701 ft | 3 kts | 120° |
| 2026-04-28 16:35 | 37.98094 | 58.36944 | 696 ft | 7 kts | 120° |
| 2026-04-28 16:36 | 37.98065 | 58.37008 | 695 ft | 10 kts | 120° |
| 2026-04-28 16:36 | 37.98013 | 58.37075 | 692 ft | 12 kts | 160° |
| 2026-04-28 16:36 | 37.97956 | 58.37097 | 695 ft | 14 kts | 164° |
| 2026-04-28 16:36 | 37.97859 | 58.37132 | 694 ft | 16 kts | 164° |
| 2026-04-28 16:37 | 37.97748 | 58.37175 | 700 ft | 17 kts | 149° |
| 2026-04-28 16:37 | 37.97684 | 58.37305 | 694 ft | 18 kts | 120° |
| 2026-04-28 16:37 | 37.97624 | 58.37442 | 694 ft | 17 kts | 119° |
| 2026-04-28 16:38 | 37.97438 | 58.37421 | 690 ft | 16 kts | 213° |
| 2026-04-28 16:38 | 37.97337 | 58.37351 | 689 ft | 17 kts | 208° |
| 2026-04-28 16:38 | 37.97324 | 58.37320 | 694 ft | 3 kts | 289° |
| 2026-04-28 16:38 | 37.97346 | 58.37288 | 688 ft | 8 kts | 305° |
| 2026-04-28 16:39 | 37.97385 | 58.37201 | 695 ft | 0 kts | 298° |
| 2026-04-28 16:39 | 37.97435 | 58.37085 | 688 ft | 49 kts | 299° |
| 2026-04-28 16:39 | 37.97731 | 58.36423 | 691 ft | 123 kts | 299° |
| 2026-04-28 16:40 | 37.98259 | 58.35243 | 777 ft | 178 kts | 300° |
| 2026-04-28 16:40 | 37.98877 | 58.33793 | 1505 ft | 192 kts | 298° |
| 2026-04-28 16:40 | 37.99524 | 58.32308 | 2551 ft | 196 kts | 300° |
| 2026-04-28 16:40 | 38.00234 | 58.30723 | 2871 ft | 219 kts | 300° |
| 2026-04-28 16:41 | 38.00974 | 58.28958 | 3200 ft | 231 kts | 301° |
| 2026-04-28 16:41 | 38.01782 | 58.27172 | 3694 ft | 241 kts | 303° |
| 2026-04-28 16:41 | 38.02755 | 58.25339 | 4007 ft | 258 kts | 308° |
| 2026-04-28 16:41 | 38.03881 | 58.23516 | 4684 ft | 265 kts | 311° |
| 2026-04-28 16:42 | 38.05127 | 58.21779 | 5541 ft | 267 kts | 316° |
| 2026-04-28 16:42 | 38.06505 | 58.20166 | 6304 ft | 272 kts | 321° |
| 2026-04-28 16:42 | 38.07998 | 58.18658 | 7073 ft | 276 kts | 323° |
| 2026-04-28 16:42 | 38.09538 | 58.17171 | 7834 ft | 280 kts | 323° |
| 2026-04-28 16:43 | 38.11109 | 58.15670 | 8594 ft | 284 kts | 323° |
| 2026-04-28 16:43 | 38.12702 | 58.14147 | 9333 ft | 289 kts | 323° |
| 2026-04-28 16:43 | 38.14291 | 58.12623 | 10072 ft | 292 kts | 323° |
| 2026-04-28 16:43 | 38.15952 | 58.11039 | 10515 ft | 309 kts | 323° |
| 2026-04-28 16:44 | 38.17737 | 58.09320 | 10687 ft | 332 kts | 322° |
| 2026-04-28 16:44 | 38.19618 | 58.07488 | 11079 ft | 346 kts | 322° |
| 2026-04-28 16:44 | 38.21551 | 58.05619 | 11699 ft | 351 kts | 322° |
| 2026-04-28 16:44 | 38.23511 | 58.03727 | 12374 ft | 355 kts | 321° |
| 2026-04-28 16:45 | 38.25491 | 58.01811 | 13009 ft | 360 kts | 321° |
| 2026-04-28 16:45 | 38.27440 | 57.99923 | 13720 ft | 360 kts | 321° |
| 2026-04-28 16:45 | 38.29426 | 57.97998 | 14425 ft | 362 kts | 321° |
| 2026-04-28 16:45 | 38.31436 | 57.96046 | 15093 ft | 365 kts | 321° |
| 2026-04-28 16:46 | 38.33462 | 57.94079 | 15765 ft | 367 kts | 321° |
| 2026-04-28 16:46 | 38.35500 | 57.92098 | 16416 ft | 369 kts | 321° |
| 2026-04-28 16:46 | 38.37544 | 57.90111 | 17050 ft | 371 kts | 321° |
| 2026-04-28 16:46 | 38.39602 | 57.88106 | 17671 ft | 373 kts | 321° |
| 2026-04-28 16:47 | 38.41673 | 57.86089 | 18274 ft | 375 kts | 321° |
| 2026-04-28 16:47 | 38.43753 | 57.84060 | 18871 ft | 378 kts | 321° |
| 2026-04-28 16:47 | 38.45850 | 57.82010 | 19383 ft | 382 kts | 321° |
| 2026-04-28 16:47 | 38.47974 | 57.79937 | 19865 ft | 387 kts | 321° |
| 2026-04-28 16:48 | 38.50123 | 57.77840 | 20384 ft | 390 kts | 321° |
| 2026-04-28 16:48 | 38.52283 | 57.75730 | 20886 ft | 393 kts | 320° |
| 2026-04-28 16:48 | 38.54466 | 57.73593 | 21358 ft | 396 kts | 320° |
| 2026-04-28 16:48 | 38.56661 | 57.71444 | 21813 ft | 400 kts | 320° |
| 2026-04-28 16:49 | 38.58876 | 57.69272 | 22292 ft | 402 kts | 320° |
| 2026-04-28 16:49 | 38.61028 | 57.66968 | 22722 ft | 403 kts | 309° |
| 2026-04-28 16:49 | 38.62549 | 57.64046 | 23115 ft | 401 kts | 292° |
| 2026-04-28 16:49 | 38.63558 | 57.60723 | 23531 ft | 401 kts | 288° |
| 2026-04-28 16:50 | 38.64503 | 57.57344 | 23932 ft | 404 kts | 287° |
| 2026-04-28 16:50 | 38.65443 | 57.53936 | 24353 ft | 406 kts | 287° |
| 2026-04-28 16:50 | 38.66391 | 57.50515 | 24768 ft | 409 kts | 287° |
| 2026-04-28 16:50 | 38.67347 | 57.47088 | 25158 ft | 411 kts | 287° |
| 2026-04-28 16:51 | 38.68320 | 57.43631 | 25531 ft | 413 kts | 287° |
| 2026-04-28 16:51 | 38.69302 | 57.40157 | 25921 ft | 415 kts | 287° |
| 2026-04-28 16:51 | 38.70276 | 57.36718 | 26295 ft | 417 kts | 287° |
| 2026-04-28 16:51 | 38.71268 | 57.33217 | 26639 ft | 419 kts | 287° |
| 2026-04-28 16:52 | 38.72265 | 57.29699 | 26976 ft | 421 kts | 287° |
| 2026-04-28 16:52 | 38.73267 | 57.26164 | 27281 ft | 423 kts | 287° |
| 2026-04-28 16:52 | 38.74271 | 57.22611 | 27603 ft | 425 kts | 286° |
| 2026-04-28 16:52 | 38.75278 | 57.19045 | 27935 ft | 427 kts | 286° |
| 2026-04-28 16:53 | 38.76289 | 57.15459 | 28239 ft | 429 kts | 286° |
| 2026-04-28 16:53 | 38.77302 | 57.11859 | 28546 ft | 430 kts | 286° |
| 2026-04-28 16:53 | 38.78319 | 57.08245 | 28854 ft | 432 kts | 286° |
| 2026-04-28 16:53 | 38.79339 | 57.04607 | 29152 ft | 434 kts | 286° |
| 2026-04-28 16:54 | 38.80360 | 57.00965 | 29437 ft | 435 kts | 286° |
| 2026-04-28 16:54 | 38.81356 | 56.97407 | 29699 ft | 437 kts | 285° |
| 2026-04-28 16:54 | 38.82385 | 56.93734 | 29952 ft | 438 kts | 285° |
| 2026-04-28 16:54 | 38.83065 | 56.91298 | 30137 ft | 439 kts | 285° |
| 2026-04-28 16:55 | 38.84442 | 56.86366 | 30624 ft | 438 kts | 285° |
| 2026-04-28 16:55 | 38.85450 | 56.82749 | 30986 ft | 436 kts | 285° |
| 2026-04-28 16:55 | 38.86469 | 56.79085 | 31248 ft | 437 kts | 285° |
| 2026-04-28 16:55 | 38.87490 | 56.75403 | 31540 ft | 437 kts | 285° |
| 2026-04-28 16:56 | 38.88506 | 56.71734 | 31888 ft | 435 kts | 285° |
| 2026-04-28 16:56 | 38.89518 | 56.68077 | 32201 ft | 435 kts | 285° |
| 2026-04-28 16:56 | 38.90529 | 56.64424 | 32503 ft | 434 kts | 285° |
| 2026-04-28 16:56 | 38.91536 | 56.60777 | 32786 ft | 433 kts | 285° |
| 2026-04-28 16:57 | 38.92541 | 56.57130 | 33032 ft | 433 kts | 285° |
| 2026-04-28 16:57 | 38.93543 | 56.53488 | 33299 ft | 432 kts | 285° |
| 2026-04-28 16:57 | 38.94545 | 56.49836 | 33566 ft | 432 kts | 285° |
| 2026-04-28 16:57 | 38.95543 | 56.46200 | 33830 ft | 431 kts | 285° |
| 2026-04-28 16:58 | 38.96541 | 56.42560 | 34066 ft | 431 kts | 285° |
| 2026-04-28 16:58 | 38.97536 | 56.38924 | 34327 ft | 431 kts | 285° |
| 2026-04-28 16:58 | 38.98527 | 56.35304 | 34620 ft | 429 kts | 285° |
| 2026-04-28 16:58 | 38.99501 | 56.31739 | 34889 ft | 427 kts | 285° |
| 2026-04-28 16:59 | 39.00467 | 56.28138 | 35108 ft | 427 kts | 283° |
| 2026-04-28 16:59 | 39.01343 | 56.24490 | 35324 ft | 426 kts | 282° |
| 2026-04-28 16:59 | 39.02165 | 56.20839 | 35547 ft | 425 kts | 281° |
| 2026-04-28 16:59 | 39.02973 | 56.17188 | 35792 ft | 424 kts | 281° |
| 2026-04-28 17:00 | 39.03782 | 56.13543 | 36029 ft | 423 kts | 281° |
| 2026-04-28 17:00 | 39.05412 | 56.06279 | 36124 ft | 423 kts | 282° |
| 2026-04-28 17:01 | 39.07039 | 55.99102 | 36146 ft | 423 kts | 282° |
| 2026-04-28 17:01 | 39.08680 | 55.91870 | 36145 ft | 423 kts | 282° |
| 2026-04-28 17:02 | 39.10326 | 55.84590 | 36144 ft | 423 kts | 282° |
| 2026-04-28 17:02 | 39.11965 | 55.77307 | 36137 ft | 424 kts | 282° |
| 2026-04-28 17:03 | 39.14423 | 55.66352 | 36131 ft | 424 kts | 282° |
| 2026-04-28 17:03 | 39.16045 | 55.59097 | 36138 ft | 425 kts | 282° |
| 2026-04-28 17:04 | 39.18488 | 55.48127 | 36129 ft | 424 kts | 282° |
| 2026-04-28 17:05 | 39.20917 | 55.37152 | 36134 ft | 424 kts | 282° |
| 2026-04-28 17:06 | 39.23338 | 55.26178 | 36135 ft | 424 kts | 282° |
| 2026-04-28 17:06 | 39.25746 | 55.15201 | 36143 ft | 424 kts | 281° |
| 2026-04-28 17:07 | 39.27342 | 55.07877 | 36136 ft | 424 kts | 281° |
| 2026-04-28 17:07 | 39.28925 | 55.00596 | 36135 ft | 423 kts | 282° |
| 2026-04-28 17:08 | 39.30506 | 54.93338 | 36147 ft | 423 kts | 282° |
| 2026-04-28 17:08 | 39.32081 | 54.86063 | 36131 ft | 423 kts | 281° |
| 2026-04-28 17:09 | 39.33657 | 54.78745 | 36138 ft | 422 kts | 282° |
| 2026-04-28 17:09 | 39.35226 | 54.71439 | 36150 ft | 422 kts | 281° |
| 2026-04-28 17:10 | 39.36789 | 54.64127 | 36151 ft | 422 kts | 282° |
| 2026-04-28 17:10 | 39.38340 | 54.56854 | 36157 ft | 422 kts | 281° |
| 2026-04-28 17:11 | 39.39907 | 54.49494 | 36153 ft | 423 kts | 282° |
| 2026-04-28 17:11 | 39.41452 | 54.42205 | 36159 ft | 423 kts | 281° |
| 2026-04-28 17:12 | 39.43014 | 54.34824 | 36147 ft | 425 kts | 281° |
| 2026-04-28 17:12 | 39.44567 | 54.27450 | 36139 ft | 426 kts | 281° |
| 2026-04-28 17:13 | 39.46121 | 54.20037 | 36143 ft | 427 kts | 281° |
| 2026-04-28 17:13 | 39.47665 | 54.12654 | 36140 ft | 427 kts | 281° |
| 2026-04-28 17:14 | 39.49216 | 54.05217 | 36142 ft | 427 kts | 281° |
| 2026-04-28 17:14 | 39.50731 | 53.97887 | 36142 ft | 428 kts | 281° |
| 2026-04-28 17:15 | 39.52252 | 53.90436 | 36144 ft | 427 kts | 281° |
| 2026-04-28 17:15 | 39.53767 | 53.82991 | 36137 ft | 427 kts | 281° |
| 2026-04-28 17:16 | 39.55267 | 53.75602 | 36143 ft | 427 kts | 281° |
| 2026-04-28 17:16 | 39.56773 | 53.68157 | 36142 ft | 427 kts | 281° |
| 2026-04-28 17:17 | 39.58273 | 53.60713 | 36135 ft | 426 kts | 281° |
| 2026-04-28 17:17 | 39.59768 | 53.53271 | 36128 ft | 426 kts | 281° |
| 2026-04-28 17:18 | 39.61260 | 53.45825 | 36129 ft | 426 kts | 281° |
| 2026-04-28 17:18 | 39.62742 | 53.38393 | 36142 ft | 425 kts | 281° |
| 2026-04-28 17:19 | 39.64216 | 53.30967 | 36137 ft | 425 kts | 281° |
| 2026-04-28 17:19 | 39.65681 | 53.23555 | 36137 ft | 424 kts | 281° |
| 2026-04-28 17:20 | 39.66899 | 53.17401 | 36132 ft | 423 kts | 281° |
| 2026-04-28 17:20 | 39.68588 | 53.08807 | 36125 ft | 422 kts | 281° |
| 2026-04-28 17:21 | 39.70034 | 53.01428 | 36133 ft | 422 kts | 281° |
| 2026-04-28 17:22 | 39.72174 | 52.90434 | 36128 ft | 422 kts | 281° |
| 2026-04-28 17:22 | 39.73611 | 52.83034 | 36128 ft | 422 kts | 281° |
| 2026-04-28 17:23 | 39.75806 | 52.71932 | 36134 ft | 423 kts | 281° |
| 2026-04-28 17:23 | 39.77272 | 52.64524 | 36143 ft | 423 kts | 281° |
| 2026-04-28 17:24 | 39.78730 | 52.57112 | 36136 ft | 424 kts | 281° |
| 2026-04-28 17:24 | 39.80186 | 52.49672 | 36146 ft | 425 kts | 281° |
| 2026-04-28 17:25 | 39.82355 | 52.38550 | 36147 ft | 425 kts | 281° |
| 2026-04-28 17:26 | 39.83802 | 52.31087 | 36141 ft | 425 kts | 281° |
| 2026-04-28 17:26 | 39.84999 | 52.24890 | 36145 ft | 424 kts | 280° |
| 2026-04-28 17:27 | 39.86437 | 52.17428 | 36136 ft | 424 kts | 280° |
| 2026-04-28 17:27 | 39.87865 | 52.09983 | 36146 ft | 423 kts | 280° |
| 2026-04-28 17:28 | 39.89288 | 52.02540 | 36147 ft | 423 kts | 280° |
| 2026-04-28 17:28 | 39.91390 | 51.91503 | 36148 ft | 422 kts | 280° |
| 2026-04-28 17:29 | 39.92795 | 51.84082 | 36149 ft | 422 kts | 280° |
| 2026-04-28 17:30 | 39.94886 | 51.72988 | 36156 ft | 421 kts | 280° |
| 2026-04-28 17:30 | 39.96971 | 51.61873 | 36169 ft | 421 kts | 280° |
| 2026-04-28 17:31 | 39.99054 | 51.50747 | 36165 ft | 422 kts | 282° |
| 2026-04-28 17:32 | 40.02452 | 51.40044 | 36168 ft | 427 kts | 290° |
| 2026-04-28 17:32 | 40.04886 | 51.33019 | 36174 ft | 427 kts | 290° |
| 2026-04-28 17:33 | 40.07298 | 51.25928 | 36175 ft | 427 kts | 289° |
| 2026-04-28 17:33 | 40.09285 | 51.20022 | 36176 ft | 427 kts | 289° |
| 2026-04-28 17:34 | 40.12067 | 51.11722 | 36176 ft | 426 kts | 289° |
| 2026-04-28 17:34 | 40.14440 | 51.04620 | 36179 ft | 426 kts | 289° |
| 2026-04-28 17:35 | 40.16771 | 50.97632 | 36187 ft | 425 kts | 289° |
| 2026-04-28 17:35 | 40.19132 | 50.90536 | 36183 ft | 425 kts | 289° |
| 2026-04-28 17:36 | 40.21470 | 50.83490 | 36182 ft | 425 kts | 289° |
| 2026-04-28 17:36 | 40.23834 | 50.76404 | 36182 ft | 424 kts | 289° |
| 2026-04-28 17:37 | 40.26197 | 50.69321 | 36181 ft | 424 kts | 289° |
| 2026-04-28 17:37 | 40.28552 | 50.62232 | 36183 ft | 424 kts | 289° |
| 2026-04-28 17:38 | 40.30888 | 50.55180 | 36182 ft | 423 kts | 288° |
| 2026-04-28 17:38 | 40.33223 | 50.48106 | 36184 ft | 423 kts | 288° |
| 2026-04-28 17:39 | 40.35560 | 50.41007 | 36186 ft | 424 kts | 288° |
| 2026-04-28 17:40 | 40.39060 | 50.30352 | 36187 ft | 424 kts | 288° |
| 2026-04-28 17:40 | 40.41393 | 50.23228 | 36184 ft | 425 kts | 288° |
| 2026-04-28 17:41 | 40.43708 | 50.16143 | 36184 ft | 425 kts | 288° |
| 2026-04-28 17:41 | 40.46032 | 50.09005 | 36183 ft | 425 kts | 288° |
| 2026-04-28 17:42 | 40.47962 | 50.01709 | 36188 ft | 419 kts | 278° |
| 2026-04-28 17:42 | 40.49154 | 49.94325 | 36189 ft | 419 kts | 277° |
| 2026-04-28 17:43 | 40.50369 | 49.86831 | 36185 ft | 419 kts | 278° |
| 2026-04-28 17:43 | 40.51594 | 49.79397 | 36187 ft | 419 kts | 278° |
| 2026-04-28 17:44 | 40.52831 | 49.71914 | 36181 ft | 419 kts | 278° |
| 2026-04-28 17:44 | 40.54066 | 49.64423 | 36184 ft | 419 kts | 278° |
| 2026-04-28 17:45 | 40.55298 | 49.56920 | 36188 ft | 419 kts | 278° |
| 2026-04-28 17:45 | 40.56522 | 49.49437 | 36191 ft | 418 kts | 277° |
| 2026-04-28 17:46 | 40.57732 | 49.41953 | 36182 ft | 417 kts | 277° |
| 2026-04-28 17:46 | 40.58912 | 49.34524 | 36183 ft | 417 kts | 277° |
| 2026-04-28 17:47 | 40.60093 | 49.27061 | 36185 ft | 416 kts | 277° |
| 2026-04-28 17:47 | 40.61203 | 49.19587 | 36180 ft | 413 kts | 272° |
| 2026-04-28 17:48 | 40.61226 | 49.12105 | 36182 ft | 408 kts | 264° |
| 2026-04-28 17:48 | 40.61030 | 49.04640 | 36181 ft | 409 kts | 264° |
| 2026-04-28 17:49 | 40.60858 | 48.97267 | 36176 ft | 408 kts | 265° |
| 2026-04-28 17:49 | 40.60697 | 48.89844 | 36181 ft | 408 kts | 265° |
| 2026-04-28 17:50 | 40.60536 | 48.82384 | 36186 ft | 408 kts | 265° |
| 2026-04-28 17:50 | 40.60367 | 48.74916 | 36189 ft | 408 kts | 265° |
| 2026-04-28 17:51 | 40.60194 | 48.67439 | 36181 ft | 409 kts | 265° |
| 2026-04-28 17:51 | 40.60014 | 48.59940 | 36185 ft | 408 kts | 264° |
| 2026-04-28 17:52 | 40.59833 | 48.52483 | 36180 ft | 408 kts | 264° |
| 2026-04-28 17:52 | 40.59551 | 48.41314 | 36198 ft | 409 kts | 264° |
| 2026-04-28 17:53 | 40.59356 | 48.33830 | 36198 ft | 410 kts | 264° |
| 2026-04-28 17:53 | 40.59157 | 48.26349 | 36186 ft | 409 kts | 264° |
| 2026-04-28 17:54 | 40.58955 | 48.18870 | 36197 ft | 409 kts | 264° |
| 2026-04-28 17:54 | 40.58750 | 48.11376 | 36204 ft | 409 kts | 264° |
| 2026-04-28 17:55 | 40.58548 | 48.03926 | 36201 ft | 410 kts | 264° |
| 2026-04-28 17:55 | 40.58343 | 47.96526 | 36211 ft | 410 kts | 264° |
| 2026-04-28 17:56 | 40.58448 | 47.88987 | 36208 ft | 413 kts | 269° |
| 2026-04-28 17:56 | 40.58733 | 47.81436 | 36201 ft | 413 kts | 269° |
| 2026-04-28 17:57 | 40.59006 | 47.73903 | 36205 ft | 412 kts | 269° |
| 2026-04-28 17:57 | 40.59254 | 47.66407 | 36198 ft | 411 kts | 268° |
| 2026-04-28 17:58 | 40.59493 | 47.58887 | 36202 ft | 411 kts | 268° |
| 2026-04-28 17:58 | 40.59727 | 47.51378 | 36204 ft | 410 kts | 268° |
| 2026-04-28 17:59 | 40.59955 | 47.43891 | 36197 ft | 410 kts | 268° |
| 2026-04-28 17:59 | 40.60179 | 47.36412 | 36188 ft | 409 kts | 268° |
| 2026-04-28 18:00 | 40.60397 | 47.28939 | 36192 ft | 409 kts | 268° |
| 2026-04-28 18:00 | 40.60610 | 47.21461 | 36187 ft | 408 kts | 268° |
| 2026-04-28 18:01 | 40.61042 | 47.14033 | 36191 ft | 411 kts | 273° |
| 2026-04-28 18:01 | 40.61841 | 47.06580 | 36180 ft | 411 kts | 274° |
| 2026-04-28 18:02 | 40.62639 | 46.99251 | 36189 ft | 411 kts | 273° |
| 2026-04-28 18:02 | 40.63417 | 46.91787 | 36188 ft | 411 kts | 273° |
| 2026-04-28 18:03 | 40.64176 | 46.84325 | 36185 ft | 412 kts | 273° |
| 2026-04-28 18:03 | 40.64928 | 46.76847 | 36182 ft | 412 kts | 273° |
| 2026-04-28 18:04 | 40.65675 | 46.69364 | 36179 ft | 412 kts | 273° |
| 2026-04-28 18:04 | 40.66417 | 46.61864 | 36170 ft | 412 kts | 272° |
| 2026-04-28 18:05 | 40.67030 | 46.55640 | 36171 ft | 413 kts | 272° |
| 2026-04-28 18:05 | 40.67886 | 46.46908 | 36165 ft | 413 kts | 272° |
| 2026-04-28 18:06 | 40.68618 | 46.39386 | 36155 ft | 413 kts | 272° |
| 2026-04-28 18:06 | 40.69343 | 46.31884 | 36159 ft | 413 kts | 272° |
| 2026-04-28 18:07 | 40.70061 | 46.24376 | 36154 ft | 413 kts | 272° |
| 2026-04-28 18:07 | 40.70772 | 46.16921 | 36155 ft | 412 kts | 272° |
| 2026-04-28 18:08 | 40.71481 | 46.09441 | 36151 ft | 411 kts | 272° |
| 2026-04-28 18:08 | 40.72181 | 46.01973 | 36150 ft | 410 kts | 272° |
| 2026-04-28 18:09 | 40.72863 | 45.94617 | 36149 ft | 410 kts | 272° |
| 2026-04-28 18:09 | 40.73554 | 45.87146 | 36149 ft | 411 kts | 272° |
| 2026-04-28 18:10 | 40.74241 | 45.79658 | 36153 ft | 412 kts | 272° |
| 2026-04-28 18:10 | 40.74922 | 45.72188 | 36162 ft | 414 kts | 272° |
| 2026-04-28 18:11 | 40.75606 | 45.64615 | 36161 ft | 417 kts | 272° |
| 2026-04-28 18:11 | 40.76293 | 45.57004 | 36161 ft | 419 kts | 272° |
| 2026-04-28 18:12 | 40.76963 | 45.49357 | 36155 ft | 419 kts | 270° |
| 2026-04-28 18:12 | 40.77369 | 45.41695 | 36160 ft | 418 kts | 269° |
| 2026-04-28 18:13 | 40.77675 | 45.34068 | 36152 ft | 418 kts | 269° |
| 2026-04-28 18:13 | 40.77992 | 45.26418 | 36147 ft | 416 kts | 269° |
| 2026-04-28 18:14 | 40.78324 | 45.18801 | 36141 ft | 415 kts | 269° |
| 2026-04-28 18:14 | 40.78658 | 45.11200 | 36140 ft | 414 kts | 269° |
| 2026-04-28 18:15 | 40.78931 | 45.04900 | 36139 ft | 413 kts | 269° |
| 2026-04-28 18:15 | 40.79251 | 44.97441 | 36135 ft | 411 kts | 269° |
| 2026-04-28 18:16 | 40.79564 | 44.89894 | 36116 ft | 411 kts | 269° |
| 2026-04-28 18:16 | 40.79871 | 44.82383 | 36126 ft | 409 kts | 269° |
| 2026-04-28 18:17 | 40.80175 | 44.74880 | 36109 ft | 410 kts | 269° |
| 2026-04-28 18:17 | 40.80474 | 44.67375 | 36105 ft | 409 kts | 269° |
| 2026-04-28 18:18 | 40.80768 | 44.59901 | 36101 ft | 410 kts | 269° |
| 2026-04-28 18:18 | 40.81016 | 44.53576 | 36092 ft | 412 kts | 269° |
| 2026-04-28 18:19 | 40.81351 | 44.44796 | 36102 ft | 413 kts | 269° |
| 2026-04-28 18:19 | 40.81629 | 44.37230 | 36118 ft | 412 kts | 269° |
| 2026-04-28 18:20 | 40.81905 | 44.29648 | 36119 ft | 414 kts | 269° |
| 2026-04-28 18:20 | 40.82177 | 44.22053 | 36106 ft | 414 kts | 269° |
| 2026-04-28 18:21 | 40.82445 | 44.14508 | 36107 ft | 414 kts | 269° |
| 2026-04-28 18:21 | 40.82708 | 44.06910 | 36094 ft | 414 kts | 269° |
| 2026-04-28 18:22 | 40.82966 | 43.99389 | 36101 ft | 415 kts | 269° |
| 2026-04-28 18:22 | 40.83221 | 43.91781 | 36102 ft | 415 kts | 269° |
| 2026-04-28 18:23 | 40.83469 | 43.84169 | 36098 ft | 414 kts | 269° |
| 2026-04-28 18:23 | 40.83726 | 43.76579 | 36099 ft | 413 kts | 269° |
| 2026-04-28 18:24 | 40.83535 | 43.70335 | 36098 ft | 406 kts | 255° |
| 2026-04-28 18:24 | 40.81126 | 43.62337 | 36096 ft | 400 kts | 236° |
| 2026-04-28 18:25 | 40.78114 | 43.56210 | 36109 ft | 401 kts | 236° |
| 2026-04-28 18:26 | 40.73567 | 43.46915 | 36103 ft | 401 kts | 236° |
| 2026-04-28 18:26 | 40.70562 | 43.40714 | 36098 ft | 402 kts | 236° |
| 2026-04-28 18:27 | 40.67543 | 43.34513 | 36107 ft | 402 kts | 236° |
| 2026-04-28 18:27 | 40.64505 | 43.28318 | 36100 ft | 403 kts | 236° |
| 2026-04-28 18:28 | 40.61481 | 43.22153 | 36104 ft | 403 kts | 236° |
| 2026-04-28 18:28 | 40.58430 | 43.15944 | 36103 ft | 403 kts | 236° |
| 2026-04-28 18:28 | 40.57135 | 43.12671 | 36085 ft | 406 kts | 250° |
| 2026-04-28 18:29 | 40.56514 | 43.09040 | 36110 ft | 409 kts | 260° |
| 2026-04-28 18:29 | 40.56435 | 43.05283 | 36095 ft | 415 kts | 272° |
| 2026-04-28 18:29 | 40.56941 | 43.01525 | 36121 ft | 418 kts | 277° |
| 2026-04-28 18:30 | 40.58157 | 42.94147 | 36101 ft | 419 kts | 277° |
| 2026-04-28 18:30 | 40.59345 | 42.86632 | 36102 ft | 419 kts | 277° |
| 2026-04-28 18:31 | 40.60483 | 42.79116 | 36101 ft | 419 kts | 277° |
| 2026-04-28 18:31 | 40.61606 | 42.71653 | 36097 ft | 418 kts | 277° |
| 2026-04-28 18:32 | 40.62726 | 42.64126 | 36097 ft | 418 kts | 277° |
| 2026-04-28 18:32 | 40.63835 | 42.56617 | 36097 ft | 417 kts | 276° |
| 2026-04-28 18:33 | 40.64910 | 42.49118 | 36104 ft | 416 kts | 276° |
| 2026-04-28 18:33 | 40.65970 | 42.41615 | 36102 ft | 416 kts | 276° |
| 2026-04-28 18:34 | 40.67027 | 42.34115 | 36099 ft | 416 kts | 276° |
| 2026-04-28 18:34 | 40.68075 | 42.26663 | 36110 ft | 415 kts | 276° |
| 2026-04-28 18:35 | 40.69124 | 42.19163 | 36110 ft | 416 kts | 276° |
| 2026-04-28 18:35 | 40.70170 | 42.11659 | 36111 ft | 415 kts | 276° |
| 2026-04-28 18:36 | 40.71212 | 42.04161 | 36110 ft | 415 kts | 276° |
| 2026-04-28 18:36 | 40.72221 | 41.96837 | 36111 ft | 415 kts | 276° |
| 2026-04-28 18:37 | 40.73249 | 41.89355 | 36114 ft | 414 kts | 276° |
| 2026-04-28 18:37 | 40.74270 | 41.81890 | 36105 ft | 414 kts | 276° |
| 2026-04-28 18:38 | 40.75287 | 41.74416 | 36107 ft | 415 kts | 276° |
| 2026-04-28 18:38 | 40.76298 | 41.66929 | 36111 ft | 414 kts | 276° |
| 2026-04-28 18:39 | 40.77307 | 41.59431 | 36121 ft | 415 kts | 276° |
| 2026-04-28 18:39 | 40.78308 | 41.51949 | 36122 ft | 417 kts | 276° |
| 2026-04-28 18:40 | 40.79317 | 41.44402 | 36138 ft | 418 kts | 276° |
| 2026-04-28 18:40 | 40.80319 | 41.36823 | 36150 ft | 420 kts | 276° |
| 2026-04-28 18:41 | 40.81323 | 41.29198 | 36135 ft | 422 kts | 276° |
| 2026-04-28 18:41 | 40.82327 | 41.21552 | 36128 ft | 422 kts | 276° |
| 2026-04-28 18:42 | 40.83313 | 41.13954 | 36139 ft | 422 kts | 276° |
| 2026-04-28 18:42 | 40.84305 | 41.06322 | 36137 ft | 420 kts | 276° |
| 2026-04-28 18:43 | 40.85272 | 40.98839 | 36128 ft | 419 kts | 275° |
| 2026-04-28 18:43 | 40.86245 | 40.91274 | 36130 ft | 416 kts | 275° |
| 2026-04-28 18:44 | 40.87197 | 40.83749 | 36147 ft | 415 kts | 275° |
| 2026-04-28 18:44 | 40.88577 | 40.72526 | 36153 ft | 414 kts | 275° |
| 2026-04-28 18:45 | 40.89496 | 40.65000 | 36143 ft | 415 kts | 275° |
| 2026-04-28 18:45 | 40.90417 | 40.57456 | 36147 ft | 417 kts | 275° |
| 2026-04-28 18:46 | 40.91339 | 40.49880 | 36155 ft | 417 kts | 275° |
| 2026-04-28 18:46 | 40.92254 | 40.42290 | 36142 ft | 419 kts | 275° |
| 2026-04-28 18:47 | 40.93157 | 40.34670 | 36148 ft | 419 kts | 275° |
| 2026-04-28 18:47 | 40.94049 | 40.27037 | 36149 ft | 420 kts | 275° |
| 2026-04-28 18:48 | 40.94936 | 40.19435 | 36149 ft | 420 kts | 275° |
| 2026-04-28 18:48 | 40.95824 | 40.11793 | 36147 ft | 421 kts | 275° |
| 2026-04-28 18:49 | 40.96414 | 40.06670 | 36148 ft | 421 kts | 275° |
| 2026-04-28 18:49 | 40.97569 | 39.96604 | 36147 ft | 421 kts | 275° |
| 2026-04-28 18:50 | 40.98443 | 39.88936 | 36157 ft | 420 kts | 275° |
| 2026-04-28 18:50 | 40.99311 | 39.81276 | 36158 ft | 421 kts | 275° |
| 2026-04-28 18:51 | 41.00109 | 39.73661 | 36153 ft | 420 kts | 274° |
| 2026-04-28 18:51 | 41.00827 | 39.66002 | 36158 ft | 418 kts | 274° |
| 2026-04-28 18:52 | 41.01543 | 39.58362 | 36161 ft | 418 kts | 274° |
| 2026-04-28 18:52 | 41.02266 | 39.50720 | 36153 ft | 418 kts | 274° |
| 2026-04-28 18:53 | 41.02979 | 39.43129 | 36168 ft | 418 kts | 274° |
| 2026-04-28 18:53 | 41.03694 | 39.35479 | 36160 ft | 418 kts | 274° |
| 2026-04-28 18:54 | 41.04404 | 39.27827 | 36149 ft | 418 kts | 274° |
| 2026-04-28 18:54 | 41.05107 | 39.20186 | 36154 ft | 417 kts | 274° |
| 2026-04-28 18:55 | 41.05689 | 39.13838 | 36163 ft | 417 kts | 274° |
| 2026-04-28 18:55 | 41.06514 | 39.04964 | 36155 ft | 416 kts | 274° |
| 2026-04-28 18:56 | 41.07211 | 38.97472 | 36159 ft | 415 kts | 274° |
| 2026-04-28 18:56 | 41.07911 | 38.89872 | 36157 ft | 416 kts | 274° |
| 2026-04-28 18:57 | 41.08607 | 38.82254 | 36158 ft | 415 kts | 274° |
| 2026-04-28 18:57 | 41.09294 | 38.74701 | 36159 ft | 415 kts | 274° |
| 2026-04-28 18:58 | 41.09969 | 38.67080 | 36157 ft | 416 kts | 273° |
| 2026-04-28 18:58 | 41.10597 | 38.59456 | 36155 ft | 416 kts | 273° |
| 2026-04-28 18:59 | 41.11236 | 38.51869 | 36156 ft | 416 kts | 273° |
| 2026-04-28 18:59 | 41.11883 | 38.44233 | 36159 ft | 416 kts | 273° |
| 2026-04-28 19:00 | 41.12519 | 38.36607 | 36157 ft | 416 kts | 273° |
| 2026-04-28 19:00 | 41.13156 | 38.28976 | 36155 ft | 415 kts | 273° |
| 2026-04-28 19:01 | 41.13778 | 38.21347 | 36159 ft | 415 kts | 273° |
| 2026-04-28 19:01 | 41.14390 | 38.13744 | 36155 ft | 415 kts | 273° |
| 2026-04-28 19:02 | 41.14996 | 38.06179 | 36158 ft | 415 kts | 273° |
| 2026-04-28 19:02 | 41.15592 | 37.98676 | 36157 ft | 415 kts | 273° |
| 2026-04-28 19:03 | 41.16192 | 37.91066 | 36156 ft | 415 kts | 273° |
| 2026-04-28 19:03 | 41.16816 | 37.83454 | 36157 ft | 415 kts | 274° |
| 2026-04-28 19:04 | 41.17488 | 37.75844 | 36157 ft | 414 kts | 274° |
| 2026-04-28 19:04 | 41.18037 | 37.69540 | 36155 ft | 414 kts | 274° |
| 2026-04-28 19:05 | 41.18688 | 37.61950 | 36157 ft | 413 kts | 274° |
| 2026-04-28 19:05 | 41.19100 | 37.54367 | 36160 ft | 412 kts | 271° |
| 2026-04-28 19:06 | 41.19596 | 37.46756 | 36161 ft | 414 kts | 273° |
| 2026-04-28 19:06 | 41.20182 | 37.39221 | 36156 ft | 413 kts | 273° |
| 2026-04-28 19:07 | 41.20744 | 37.31628 | 36158 ft | 413 kts | 273° |
| 2026-04-28 19:07 | 41.21291 | 37.24038 | 36159 ft | 413 kts | 273° |
| 2026-04-28 19:08 | 41.21868 | 37.16450 | 36155 ft | 413 kts | 274° |
| 2026-04-28 19:08 | 41.22475 | 37.08855 | 36161 ft | 413 kts | 274° |
| 2026-04-28 19:09 | 41.23075 | 37.01252 | 36160 ft | 414 kts | 273° |
| 2026-04-28 19:09 | 41.23659 | 36.93764 | 36155 ft | 414 kts | 274° |
| 2026-04-28 19:10 | 41.24244 | 36.86193 | 36154 ft | 414 kts | 273° |
| 2026-04-28 19:10 | 41.24827 | 36.78571 | 36155 ft | 414 kts | 273° |
| 2026-04-28 19:11 | 41.25400 | 36.70962 | 36159 ft | 414 kts | 273° |
| 2026-04-28 19:11 | 41.25974 | 36.63338 | 36155 ft | 414 kts | 273° |
| 2026-04-28 19:12 | 41.26197 | 36.55730 | 36157 ft | 411 kts | 262° |
| 2026-04-28 19:12 | 41.24898 | 36.48432 | 36165 ft | 408 kts | 249° |
| 2026-04-28 19:13 | 41.22905 | 36.41374 | 36159 ft | 408 kts | 249° |
| 2026-04-28 19:13 | 41.20907 | 36.34313 | 36156 ft | 408 kts | 249° |
| 2026-04-28 19:14 | 41.18933 | 36.27263 | 36154 ft | 407 kts | 249° |
| 2026-04-28 19:14 | 41.16962 | 36.20204 | 36149 ft | 408 kts | 249° |
| 2026-04-28 19:15 | 41.15001 | 36.13189 | 36147 ft | 408 kts | 249° |
| 2026-04-28 19:15 | 41.13340 | 36.07262 | 36119 ft | 409 kts | 249° |
| 2026-04-28 19:16 | 41.11053 | 35.99123 | 36123 ft | 410 kts | 249° |
| 2026-04-28 19:16 | 41.09053 | 35.92037 | 36109 ft | 410 kts | 249° |
| 2026-04-28 19:17 | 41.06995 | 35.84974 | 36090 ft | 411 kts | 248° |
| 2026-04-28 19:17 | 41.04917 | 35.77925 | 36081 ft | 411 kts | 249° |
| 2026-04-28 19:18 | 41.02862 | 35.70922 | 36068 ft | 411 kts | 249° |
| 2026-04-28 19:18 | 41.00810 | 35.63857 | 36067 ft | 410 kts | 249° |
| 2026-04-28 19:19 | 40.98782 | 35.56781 | 36058 ft | 410 kts | 249° |
| 2026-04-28 19:19 | 40.96753 | 35.49728 | 36044 ft | 410 kts | 249° |
| 2026-04-28 19:20 | 40.94714 | 35.42682 | 36053 ft | 411 kts | 249° |
| 2026-04-28 19:20 | 40.92680 | 35.35654 | 36050 ft | 411 kts | 249° |
| 2026-04-28 19:21 | 40.90638 | 35.28604 | 36055 ft | 411 kts | 249° |
| 2026-04-28 19:21 | 40.88590 | 35.21553 | 36052 ft | 411 kts | 249° |
| 2026-04-28 19:22 | 40.86873 | 35.15659 | 36051 ft | 410 kts | 249° |
| 2026-04-28 19:22 | 40.84490 | 35.07500 | 36070 ft | 410 kts | 249° |
| 2026-04-28 19:23 | 40.82430 | 35.00471 | 36064 ft | 410 kts | 249° |
| 2026-04-28 19:23 | 40.80393 | 34.93536 | 36047 ft | 411 kts | 249° |
| 2026-04-28 19:24 | 40.78319 | 34.86489 | 36052 ft | 412 kts | 249° |
| 2026-04-28 19:24 | 40.76237 | 34.79438 | 36052 ft | 412 kts | 249° |
| 2026-04-28 19:25 | 40.74165 | 34.72440 | 36065 ft | 412 kts | 249° |
| 2026-04-28 19:25 | 40.72053 | 34.65401 | 36049 ft | 411 kts | 248° |
| 2026-04-28 19:26 | 40.69939 | 34.58390 | 36053 ft | 412 kts | 249° |
| 2026-04-28 19:26 | 40.67822 | 34.51369 | 36050 ft | 412 kts | 248° |
| 2026-04-28 19:27 | 40.65698 | 34.44363 | 36056 ft | 412 kts | 248° |
| 2026-04-28 19:27 | 40.63576 | 34.37362 | 36059 ft | 412 kts | 248° |
| 2026-04-28 19:28 | 40.61465 | 34.30409 | 36051 ft | 412 kts | 248° |
| 2026-04-28 19:28 | 40.59329 | 34.23410 | 36056 ft | 412 kts | 248° |
| 2026-04-28 19:29 | 40.57554 | 34.17599 | 36061 ft | 412 kts | 248° |
| 2026-04-28 19:29 | 40.55050 | 34.09424 | 36052 ft | 412 kts | 248° |
| 2026-04-28 19:30 | 40.52904 | 34.02434 | 36057 ft | 412 kts | 248° |
| 2026-04-28 19:30 | 40.50782 | 33.95543 | 36058 ft | 412 kts | 248° |
| 2026-04-28 19:31 | 40.48886 | 33.88487 | 36054 ft | 412 kts | 252° |
| 2026-04-28 19:31 | 40.47142 | 33.81309 | 36056 ft | 412 kts | 252° |
| 2026-04-28 19:32 | 40.45504 | 33.74099 | 36028 ft | 412 kts | 264° |
| 2026-04-28 19:32 | 40.45596 | 33.70357 | 36073 ft | 411 kts | 278° |
| 2026-04-28 19:32 | 40.46377 | 33.66741 | 36055 ft | 415 kts | 292° |
| 2026-04-28 19:33 | 40.49435 | 33.60283 | 36055 ft | 418 kts | 302° |
| 2026-04-28 19:33 | 40.52773 | 33.54010 | 36057 ft | 418 kts | 302° |
| 2026-04-28 19:34 | 40.56051 | 33.47748 | 36049 ft | 418 kts | 302° |
| 2026-04-28 19:34 | 40.59314 | 33.41415 | 36062 ft | 418 kts | 302° |
| 2026-04-28 19:35 | 40.62568 | 33.35053 | 36055 ft | 419 kts | 301° |
| 2026-04-28 19:35 | 40.65824 | 33.28673 | 36071 ft | 419 kts | 301° |
| 2026-04-28 19:36 | 40.69075 | 33.22291 | 36064 ft | 419 kts | 302° |
| 2026-04-28 19:36 | 40.72326 | 33.15901 | 36067 ft | 419 kts | 302° |
| 2026-04-28 19:37 | 40.74917 | 33.10509 | 36060 ft | 417 kts | 296° |
| 2026-04-28 19:37 | 40.77938 | 33.02516 | 36064 ft | 416 kts | 294° |
| 2026-04-28 19:38 | 40.80407 | 32.95783 | 36064 ft | 415 kts | 294° |
| 2026-04-28 19:38 | 40.82946 | 32.88943 | 36066 ft | 415 kts | 295° |
| 2026-04-28 19:39 | 40.85500 | 32.82116 | 36062 ft | 414 kts | 295° |
| 2026-04-28 19:39 | 40.88049 | 32.75302 | 36070 ft | 413 kts | 295° |
| 2026-04-28 19:40 | 40.90585 | 32.68502 | 36074 ft | 412 kts | 295° |
| 2026-04-28 19:40 | 40.93120 | 32.61695 | 36074 ft | 412 kts | 295° |
| 2026-04-28 19:41 | 40.95645 | 32.54900 | 36072 ft | 412 kts | 295° |
| 2026-04-28 19:41 | 40.98164 | 32.48100 | 36074 ft | 411 kts | 295° |
| 2026-04-28 19:42 | 41.00664 | 32.41335 | 36075 ft | 412 kts | 295° |
| 2026-04-28 19:42 | 41.02775 | 32.35613 | 36081 ft | 412 kts | 295° |
| 2026-04-28 19:43 | 41.05695 | 32.27680 | 36085 ft | 412 kts | 295° |
| 2026-04-28 19:43 | 41.08206 | 32.20836 | 36079 ft | 413 kts | 295° |
| 2026-04-28 19:44 | 41.10718 | 32.13974 | 36088 ft | 413 kts | 295° |
| 2026-04-28 19:44 | 41.13016 | 32.07007 | 36081 ft | 412 kts | 285° |
| 2026-04-28 19:45 | 41.13926 | 31.99698 | 36101 ft | 411 kts | 275° |
| 2026-04-28 19:45 | 41.14448 | 31.92139 | 36100 ft | 411 kts | 276° |
| 2026-04-28 19:46 | 41.14980 | 31.84581 | 36110 ft | 411 kts | 276° |
| 2026-04-28 19:46 | 41.15529 | 31.77030 | 36107 ft | 411 kts | 276° |
| 2026-04-28 19:47 | 41.16078 | 31.69489 | 35732 ft | 407 kts | 276° |
| 2026-04-28 19:47 | 41.16348 | 31.65780 | 35327 ft | 402 kts | 276° |
| 2026-04-28 19:47 | 41.16613 | 31.62114 | 34959 ft | 397 kts | 276° |
| 2026-04-28 19:48 | 41.16872 | 31.58517 | 34571 ft | 394 kts | 276° |
| 2026-04-28 19:48 | 41.17130 | 31.54912 | 34185 ft | 391 kts | 276° |
| 2026-04-28 19:48 | 41.17386 | 31.51330 | 33796 ft | 388 kts | 276° |
| 2026-04-28 19:48 | 41.17639 | 31.47772 | 33402 ft | 385 kts | 276° |
| 2026-04-28 19:49 | 41.17887 | 31.44256 | 33027 ft | 382 kts | 276° |
| 2026-04-28 19:49 | 41.18134 | 31.40756 | 32649 ft | 379 kts | 276° |
| 2026-04-28 19:49 | 41.18378 | 31.37290 | 32274 ft | 376 kts | 276° |
| 2026-04-28 19:49 | 41.18618 | 31.33846 | 31892 ft | 373 kts | 276° |
| 2026-04-28 19:50 | 41.19088 | 31.27064 | 31154 ft | 368 kts | 276° |
| 2026-04-28 19:50 | 41.19321 | 31.23692 | 30790 ft | 365 kts | 276° |
| 2026-04-28 19:50 | 41.19553 | 31.20309 | 30425 ft | 362 kts | 276° |
| 2026-04-28 19:51 | 41.19777 | 31.17029 | 30069 ft | 360 kts | 276° |
| 2026-04-28 19:51 | 41.20004 | 31.13688 | 29702 ft | 357 kts | 276° |
| 2026-04-28 19:51 | 41.20222 | 31.10462 | 29342 ft | 354 kts | 276° |
| 2026-04-28 19:51 | 41.20441 | 31.07214 | 28968 ft | 351 kts | 276° |
| 2026-04-28 19:52 | 41.20658 | 31.03978 | 28591 ft | 349 kts | 276° |
| 2026-04-28 19:52 | 41.20872 | 31.00784 | 28222 ft | 347 kts | 276° |
| 2026-04-28 19:52 | 41.21077 | 30.97698 | 27865 ft | 344 kts | 276° |
| 2026-04-28 19:52 | 41.21216 | 30.95608 | 27623 ft | 343 kts | 276° |
| 2026-04-28 19:53 | 41.21425 | 30.92463 | 27266 ft | 341 kts | 276° |
| 2026-04-28 19:53 | 41.21631 | 30.89330 | 26908 ft | 339 kts | 276° |
| 2026-04-28 19:53 | 41.21836 | 30.86219 | 26547 ft | 337 kts | 276° |
| 2026-04-28 19:53 | 41.22038 | 30.83128 | 26191 ft | 335 kts | 276° |
| 2026-04-28 19:54 | 41.22237 | 30.80064 | 25840 ft | 332 kts | 276° |
| 2026-04-28 19:54 | 41.22408 | 30.77010 | 25482 ft | 331 kts | 271° |
| 2026-04-28 19:54 | 41.22035 | 30.74005 | 25071 ft | 332 kts | 254° |
| 2026-04-28 19:54 | 41.21281 | 30.71098 | 24691 ft | 332 kts | 252° |
| 2026-04-28 19:55 | 41.20490 | 30.68226 | 24327 ft | 330 kts | 252° |
| 2026-04-28 19:55 | 41.19704 | 30.65409 | 23980 ft | 328 kts | 252° |
| 2026-04-28 19:55 | 41.18918 | 30.62572 | 23632 ft | 326 kts | 252° |
| 2026-04-28 19:55 | 41.18139 | 30.59750 | 23288 ft | 325 kts | 252° |
| 2026-04-28 19:56 | 41.17366 | 30.56937 | 22946 ft | 323 kts | 252° |
| 2026-04-28 19:56 | 41.16603 | 30.54146 | 22608 ft | 321 kts | 252° |
| 2026-04-28 19:56 | 41.15842 | 30.51358 | 22273 ft | 319 kts | 252° |
| 2026-04-28 19:56 | 41.15088 | 30.48591 | 21935 ft | 317 kts | 252° |
| 2026-04-28 19:57 | 41.14342 | 30.45852 | 21605 ft | 315 kts | 252° |
| 2026-04-28 19:57 | 41.13599 | 30.43126 | 21272 ft | 313 kts | 252° |
| 2026-04-28 19:57 | 41.12861 | 30.40418 | 20947 ft | 311 kts | 252° |
| 2026-04-28 19:57 | 41.12127 | 30.37730 | 20617 ft | 309 kts | 252° |
| 2026-04-28 19:58 | 41.11398 | 30.35057 | 20301 ft | 308 kts | 252° |
| 2026-04-28 19:58 | 41.10670 | 30.32393 | 19974 ft | 306 kts | 252° |
| 2026-04-28 19:58 | 41.09954 | 30.29780 | 19653 ft | 305 kts | 252° |
| 2026-04-28 19:58 | 41.09232 | 30.27148 | 19333 ft | 303 kts | 252° |
| 2026-04-28 19:59 | 41.08511 | 30.24520 | 19019 ft | 301 kts | 252° |
| 2026-04-28 19:59 | 41.07796 | 30.21917 | 18689 ft | 300 kts | 252° |
| 2026-04-28 19:59 | 41.07085 | 30.19328 | 18382 ft | 298 kts | 252° |
| 2026-04-28 19:59 | 41.06377 | 30.16758 | 18068 ft | 296 kts | 252° |
| 2026-04-28 20:00 | 41.05671 | 30.14195 | 17756 ft | 295 kts | 251° |
| 2026-04-28 20:00 | 41.04969 | 30.11647 | 17440 ft | 294 kts | 251° |
| 2026-04-28 20:00 | 41.04269 | 30.09109 | 17124 ft | 292 kts | 251° |
| 2026-04-28 20:00 | 41.03574 | 30.06591 | 16822 ft | 291 kts | 251° |
| 2026-04-28 20:01 | 41.02878 | 30.04074 | 16500 ft | 290 kts | 251° |
| 2026-04-28 20:01 | 41.02194 | 30.01604 | 16180 ft | 289 kts | 251° |
| 2026-04-28 20:01 | 41.01523 | 29.99181 | 15890 ft | 288 kts | 251° |
| 2026-04-28 20:01 | 41.00835 | 29.96700 | 15580 ft | 286 kts | 251° |
| 2026-04-28 20:02 | 41.00148 | 29.94227 | 15270 ft | 285 kts | 251° |
| 2026-04-28 20:02 | 40.99467 | 29.91775 | 14966 ft | 283 kts | 251° |
| 2026-04-28 20:02 | 40.98786 | 29.89330 | 14661 ft | 282 kts | 251° |
| 2026-04-28 20:02 | 40.98109 | 29.86895 | 14350 ft | 281 kts | 251° |
| 2026-04-28 20:03 | 40.97435 | 29.84477 | 14051 ft | 280 kts | 251° |
| 2026-04-28 20:03 | 40.96762 | 29.82061 | 13752 ft | 279 kts | 251° |
| 2026-04-28 20:03 | 40.96089 | 29.79654 | 13445 ft | 279 kts | 251° |
| 2026-04-28 20:03 | 40.95427 | 29.77283 | 13151 ft | 279 kts | 251° |
| 2026-04-28 20:04 | 40.94753 | 29.74873 | 12843 ft | 279 kts | 251° |
| 2026-04-28 20:04 | 40.94082 | 29.72473 | 12538 ft | 278 kts | 251° |
| 2026-04-28 20:04 | 40.93409 | 29.70074 | 12225 ft | 277 kts | 251° |
| 2026-04-28 20:04 | 40.92740 | 29.67686 | 11934 ft | 277 kts | 251° |
| 2026-04-28 20:05 | 40.92069 | 29.65298 | 11617 ft | 277 kts | 251° |
| 2026-04-28 20:05 | 40.91400 | 29.62914 | 11307 ft | 277 kts | 251° |
| 2026-04-28 20:05 | 40.90729 | 29.60526 | 11000 ft | 276 kts | 251° |
| 2026-04-28 20:05 | 40.90059 | 29.58146 | 10708 ft | 276 kts | 251° |
| 2026-04-28 20:06 | 40.89391 | 29.55777 | 10402 ft | 276 kts | 251° |
| 2026-04-28 20:06 | 40.88735 | 29.53446 | 10250 ft | 270 kts | 251° |
| 2026-04-28 20:06 | 40.88185 | 29.51116 | 10084 ft | 263 kts | 265° |
| 2026-04-28 20:06 | 40.88261 | 29.48719 | 9918 ft | 262 kts | 276° |
| 2026-04-28 20:07 | 40.88430 | 29.46287 | 9721 ft | 270 kts | 276° |
| 2026-04-28 20:07 | 40.88543 | 29.44604 | 9594 ft | 274 kts | 276° |
| 2026-04-28 20:07 | 40.88759 | 29.41236 | 9324 ft | 280 kts | 276° |
| 2026-04-28 20:07 | 40.88920 | 29.38662 | 9122 ft | 281 kts | 276° |
| 2026-04-28 20:08 | 40.89076 | 29.36099 | 8899 ft | 278 kts | 276° |
| 2026-04-28 20:08 | 40.89229 | 29.33566 | 8702 ft | 274 kts | 276° |
| 2026-04-28 20:08 | 40.89379 | 29.31066 | 8496 ft | 271 kts | 276° |
| 2026-04-28 20:08 | 40.89528 | 29.28587 | 8301 ft | 269 kts | 276° |
| 2026-04-28 20:09 | 40.89673 | 29.26157 | 8113 ft | 268 kts | 276° |
| 2026-04-28 20:09 | 40.89820 | 29.23702 | 7921 ft | 266 kts | 276° |
| 2026-04-28 20:09 | 40.89965 | 29.21260 | 7726 ft | 266 kts | 276° |
| 2026-04-28 20:09 | 40.90109 | 29.18827 | 7537 ft | 266 kts | 276° |
| 2026-04-28 20:10 | 40.90253 | 29.16392 | 7352 ft | 265 kts | 276° |
| 2026-04-28 20:10 | 40.90396 | 29.13953 | 7160 ft | 267 kts | 275° |
| 2026-04-28 20:10 | 40.90538 | 29.11499 | 6954 ft | 267 kts | 276° |
| 2026-04-28 20:10 | 40.90682 | 29.09057 | 6764 ft | 267 kts | 276° |
| 2026-04-28 20:11 | 40.90823 | 29.06623 | 6567 ft | 263 kts | 276° |
| 2026-04-28 20:11 | 40.90961 | 29.04227 | 6385 ft | 259 kts | 276° |
| 2026-04-28 20:11 | 40.91096 | 29.01872 | 6192 ft | 255 kts | 275° |
| 2026-04-28 20:11 | 40.90975 | 28.99660 | 6088 ft | 248 kts | 256° |
| 2026-04-28 20:12 | 40.90492 | 28.97510 | 6034 ft | 240 kts | 255° |
| 2026-04-28 20:12 | 40.90022 | 28.95407 | 5976 ft | 239 kts | 255° |
| 2026-04-28 20:12 | 40.89561 | 28.93297 | 5924 ft | 239 kts | 255° |
| 2026-04-28 20:12 | 40.89258 | 28.91885 | 5891 ft | 241 kts | 255° |
| 2026-04-28 20:13 | 40.88645 | 28.89004 | 5812 ft | 245 kts | 256° |
| 2026-04-28 20:13 | 40.88186 | 28.86837 | 5739 ft | 245 kts | 256° |
| 2026-04-28 20:13 | 40.87728 | 28.84671 | 5677 ft | 245 kts | 255° |
| 2026-04-28 20:13 | 40.87528 | 28.82460 | 5588 ft | 243 kts | 282° |
| 2026-04-28 20:14 | 40.88227 | 28.80493 | 5550 ft | 237 kts | 313° |
| 2026-04-28 20:14 | 40.89513 | 28.79176 | 5504 ft | 234 kts | 333° |
| 2026-04-28 20:14 | 40.90971 | 28.78216 | 5446 ft | 234 kts | 335° |
| 2026-04-28 20:14 | 40.92430 | 28.77311 | 5381 ft | 235 kts | 337° |
| 2026-04-28 20:15 | 40.93901 | 28.76308 | 5298 ft | 236 kts | 330° |
| 2026-04-28 20:15 | 40.95314 | 28.75190 | 5200 ft | 236 kts | 330° |
| 2026-04-28 20:15 | 40.96703 | 28.74081 | 5150 ft | 228 kts | 330° |
| 2026-04-28 20:15 | 40.98055 | 28.73159 | 5138 ft | 218 kts | 348° |
| 2026-04-28 20:16 | 40.99531 | 28.73143 | 5160 ft | 211 kts | 3° |
| 2026-04-28 20:16 | 41.01009 | 28.73181 | 5166 ft | 214 kts | 1° |
| 2026-04-28 20:16 | 41.02534 | 28.73193 | 5031 ft | 227 kts | 0° |
| 2026-04-28 20:16 | 41.04150 | 28.73182 | 4703 ft | 235 kts | 0° |
| 2026-04-28 20:17 | 41.05793 | 28.73161 | 4386 ft | 237 kts | 360° |
| 2026-04-28 20:17 | 41.07458 | 28.73129 | 4087 ft | 240 kts | 0° |
| 2026-04-28 20:17 | 41.09139 | 28.73100 | 3771 ft | 244 kts | 0° |
| 2026-04-28 20:17 | 41.10832 | 28.72876 | 3441 ft | 246 kts | 353° |
| 2026-04-28 20:18 | 41.12547 | 28.72827 | 3209 ft | 244 kts | 7° |
| 2026-04-28 20:18 | 41.13649 | 28.72954 | 3214 ft | 238 kts | 5° |
| 2026-04-28 20:18 | 41.15791 | 28.73092 | 3159 ft | 222 kts | 0° |
| 2026-04-28 20:18 | 41.17307 | 28.73024 | 3144 ft | 214 kts | 359° |
| 2026-04-28 20:19 | 41.18760 | 28.72968 | 3165 ft | 210 kts | 0° |
| 2026-04-28 20:19 | 41.20230 | 28.72915 | 3157 ft | 212 kts | 0° |
| 2026-04-28 20:19 | 41.21713 | 28.72873 | 3171 ft | 213 kts | 0° |
| 2026-04-28 20:19 | 41.23205 | 28.72846 | 3137 ft | 217 kts | 1° |
| 2026-04-28 20:20 | 41.24705 | 28.72800 | 3174 ft | 215 kts | 359° |
| 2026-04-28 20:20 | 41.26210 | 28.72754 | 3162 ft | 216 kts | 1° |